sensor_id;sensor_type;location;lat;lon;timestamp;P1;durP1;ratioP1;P2;durP2;ratioP2
80117;SDS011;69424;48.770;-1.564;2023-12-20T00:00:20;12.00;;;3.60;;
80117;SDS011;69424;48.770;-1.564;2023-12-20T00:01:15;12.10;;;2.20;;
80117;SDS011;69424;48.770;-1.564;2023-12-20T00:01:55;15.40;;;2.20;;
80117;SDS011;69424;48.770;-1.564;2023-12-20T00:03:20;17.60;;;2.80;;
80117;SDS011;69424;48.770;-1.564;2023-12-20T00:04:27;12.20;;;4.20;;
80117;SDS011;69424;48.770;-1.564;2023-12-20T00:05:33;21.40;;;7.00;;
80117;SDS011;69424;48.770;-1.564;2023-12-20T00:06:07;12.60;;;4.20;;
80117;SDS011;69424;48.770;-1.564;2023-12-20T00:06:40;15.70;;;4.60;;
80117;SDS011;69424;48.770;-1.564;2023-12-20T00:07:46;11.00;;;3.10;;
80117;SDS011;69424;48.770;-1.564;2023-12-20T00:08:20;28.50;;;9.60;;
80117;SDS011;69424;48.770;-1.564;2023-12-20T00:08:53;17.90;;;6.30;;
80117;SDS011;69424;48.770;-1.564;2023-12-20T00:09:26;11.20;;;4.10;;
80117;SDS011;69424;48.770;-1.564;2023-12-20T00:09:59;13.00;;;4.10;;
80117;SDS011;69424;48.770;-1.564;2023-12-20T00:11:38;17.90;;;4.20;;
80117;SDS011;69424;48.770;-1.564;2023-12-20T00:13:00;11.30;;;3.20;;
80117;SDS011;69424;48.770;-1.564;2023-12-20T00:13:34;16.30;;;4.10;;
80117;SDS011;69424;48.770;-1.564;2023-12-20T00:14:18;30.90;;;11.20;;
80117;SDS011;69424;48.770;-1.564;2023-12-20T00:14:53;24.80;;;9.70;;
80117;SDS011;69424;48.770;-1.564;2023-12-20T00:15:59;36.40;;;12.50;;
80117;SDS011;69424;48.770;-1.564;2023-12-20T00:17:05;21.70;;;7.90;;
80117;SDS011;69424;48.770;-1.564;2023-12-20T00:18:44;20.40;;;4.50;;
80117;SDS011;69424;48.770;-1.564;2023-12-20T00:19:17;26.20;;;10.80;;
80117;SDS011;69424;48.770;-1.564;2023-12-20T00:20:23;22.80;;;6.30;;
80117;SDS011;69424;48.770;-1.564;2023-12-20T00:20:56;18.30;;;6.80;;
80117;SDS011;69424;48.770;-1.564;2023-12-20T00:21:32;14.50;;;3.70;;
80117;SDS011;69424;48.770;-1.564;2023-12-20T00:22:38;7.00;;;2.30;;
80117;SDS011;69424;48.770;-1.564;2023-12-20T00:23:44;15.80;;;5.60;;
80117;SDS011;69424;48.770;-1.564;2023-12-20T00:24:17;18.50;;;6.60;;
80117;SDS011;69424;48.770;-1.564;2023-12-20T00:24:50;20.90;;;6.40;;
80117;SDS011;69424;48.770;-1.564;2023-12-20T00:25:24;15.80;;;3.90;;
80117;SDS011;69424;48.770;-1.564;2023-12-20T00:25:57;11.80;;;4.20;;
80117;SDS011;69424;48.770;-1.564;2023-12-20T00:26:30;10.40;;;4.40;;
80117;SDS011;69424;48.770;-1.564;2023-12-20T00:27:36;12.50;;;3.20;;
80117;SDS011;69424;48.770;-1.564;2023-12-20T00:28:44;14.80;;;5.00;;
80117;SDS011;69424;48.770;-1.564;2023-12-20T00:29:17;11.90;;;3.60;;
80117;SDS011;69424;48.770;-1.564;2023-12-20T00:30:23;10.60;;;2.90;;
80117;SDS011;69424;48.770;-1.564;2023-12-20T00:30:56;14.80;;;3.70;;
80117;SDS011;69424;48.770;-1.564;2023-12-20T00:31:30;19.10;;;5.10;;
80117;SDS011;69424;48.770;-1.564;2023-12-20T00:32:38;16.90;;;4.10;;
80117;SDS011;69424;48.770;-1.564;2023-12-20T00:33:11;16.20;;;7.40;;
80117;SDS011;69424;48.770;-1.564;2023-12-20T00:33:44;18.10;;;4.60;;
80117;SDS011;69424;48.770;-1.564;2023-12-20T00:34:20;19.30;;;7.70;;
80117;SDS011;69424;48.770;-1.564;2023-12-20T00:34:53;12.30;;;4.40;;
80117;SDS011;69424;48.770;-1.564;2023-12-20T00:35:26;12.80;;;4.90;;
80117;SDS011;69424;48.770;-1.564;2023-12-20T00:36:32;14.00;;;3.70;;
80117;SDS011;69424;48.770;-1.564;2023-12-20T00:37:38;11.10;;;1.80;;
80117;SDS011;69424;48.770;-1.564;2023-12-20T00:38:11;10.50;;;2.20;;
80117;SDS011;69424;48.770;-1.564;2023-12-20T00:38:44;11.40;;;1.90;;
80117;SDS011;69424;48.770;-1.564;2023-12-20T00:39:17;9.50;;;1.70;;
80117;SDS011;69424;48.770;-1.564;2023-12-20T00:40:24;8.90;;;2.00;;
80117;SDS011;69424;48.770;-1.564;2023-12-20T00:40:57;11.80;;;3.10;;
80117;SDS011;69424;48.770;-1.564;2023-12-20T00:41:30;9.80;;;4.20;;
80117;SDS011;69424;48.770;-1.564;2023-12-20T00:42:36;8.90;;;2.80;;
80117;SDS011;69424;48.770;-1.564;2023-12-20T00:43:09;13.60;;;4.80;;
80117;SDS011;69424;48.770;-1.564;2023-12-20T00:43:42;15.90;;;2.20;;
80117;SDS011;69424;48.770;-1.564;2023-12-20T00:44:16;14.40;;;2.90;;
80117;SDS011;69424;48.770;-1.564;2023-12-20T00:44:49;10.00;;;2.80;;
80117;SDS011;69424;48.770;-1.564;2023-12-20T00:45:23;13.60;;;2.90;;
80117;SDS011;69424;48.770;-1.564;2023-12-20T00:46:29;15.80;;;5.00;;
80117;SDS011;69424;48.770;-1.564;2023-12-20T00:47:02;18.30;;;5.30;;
80117;SDS011;69424;48.770;-1.564;2023-12-20T00:47:38;8.70;;;3.00;;
80117;SDS011;69424;48.770;-1.564;2023-12-20T00:48:11;14.70;;;3.20;;
80117;SDS011;69424;48.770;-1.564;2023-12-20T00:48:44;12.70;;;2.40;;
80117;SDS011;69424;48.770;-1.564;2023-12-20T00:49:18;15.90;;;3.40;;
80117;SDS011;69424;48.770;-1.564;2023-12-20T00:49:51;14.90;;;3.50;;
80117;SDS011;69424;48.770;-1.564;2023-12-20T00:50:25;11.60;;;3.10;;
80117;SDS011;69424;48.770;-1.564;2023-12-20T00:51:01;13.10;;;3.40;;
80117;SDS011;69424;48.770;-1.564;2023-12-20T00:51:35;14.40;;;4.00;;
80117;SDS011;69424;48.770;-1.564;2023-12-20T00:52:08;30.10;;;11.70;;
80117;SDS011;69424;48.770;-1.564;2023-12-20T00:53:14;14.80;;;3.90;;
80117;SDS011;69424;48.770;-1.564;2023-12-20T00:53:48;11.60;;;2.20;;
80117;SDS011;69424;48.770;-1.564;2023-12-20T00:54:22;11.40;;;2.30;;
80117;SDS011;69424;48.770;-1.564;2023-12-20T00:54:55;14.70;;;4.30;;
80117;SDS011;69424;48.770;-1.564;2023-12-20T00:56:01;8.40;;;1.70;;
80117;SDS011;69424;48.770;-1.564;2023-12-20T00:56:35;14.00;;;5.70;;
80117;SDS011;69424;48.770;-1.564;2023-12-20T00:57:08;12.40;;;3.10;;
80117;SDS011;69424;48.770;-1.564;2023-12-20T00:57:41;9.60;;;1.90;;
80117;SDS011;69424;48.770;-1.564;2023-12-20T00:58:14;11.90;;;1.60;;
80117;SDS011;69424;48.770;-1.564;2023-12-20T00:58:49;9.00;;;2.10;;
80117;SDS011;69424;48.770;-1.564;2023-12-20T00:59:22;11.90;;;3.30;;
80117;SDS011;69424;48.770;-1.564;2023-12-20T00:59:55;14.70;;;2.70;;
80117;SDS011;69424;48.770;-1.564;2023-12-20T01:00:28;14.90;;;4.30;;
80117;SDS011;69424;48.770;-1.564;2023-12-20T01:01:01;12.00;;;2.90;;
80117;SDS011;69424;48.770;-1.564;2023-12-20T01:01:34;15.80;;;3.30;;
80117;SDS011;69424;48.770;-1.564;2023-12-20T01:02:08;11.10;;;1.80;;
80117;SDS011;69424;48.770;-1.564;2023-12-20T01:02:41;9.40;;;3.00;;
80117;SDS011;69424;48.770;-1.564;2023-12-20T01:03:48;9.60;;;2.30;;
80117;SDS011;69424;48.770;-1.564;2023-12-20T01:04:24;8.70;;;2.00;;
80117;SDS011;69424;48.770;-1.564;2023-12-20T01:04:57;10.90;;;1.90;;
80117;SDS011;69424;48.770;-1.564;2023-12-20T01:05:30;8.40;;;2.70;;
80117;SDS011;69424;48.770;-1.564;2023-12-20T01:06:37;10.10;;;2.80;;
80117;SDS011;69424;48.770;-1.564;2023-12-20T01:07:43;11.90;;;2.90;;
80117;SDS011;69424;48.770;-1.564;2023-12-20T01:08:16;14.70;;;2.70;;
80117;SDS011;69424;48.770;-1.564;2023-12-20T01:08:49;8.00;;;2.10;;
80117;SDS011;69424;48.770;-1.564;2023-12-20T01:09:22;8.70;;;2.20;;
80117;SDS011;69424;48.770;-1.564;2023-12-20T01:10:01;8.40;;;2.60;;
80117;SDS011;69424;48.770;-1.564;2023-12-20T01:10:35;8.70;;;2.60;;
80117;SDS011;69424;48.770;-1.564;2023-12-20T01:11:07;7.90;;;1.80;;
80117;SDS011;69424;48.770;-1.564;2023-12-20T01:12:47;9.50;;;2.30;;
80117;SDS011;69424;48.770;-1.564;2023-12-20T01:14:26;14.20;;;3.20;;
80117;SDS011;69424;48.770;-1.564;2023-12-20T01:14:59;14.10;;;2.70;;
80117;SDS011;69424;48.770;-1.564;2023-12-20T01:15:32;8.60;;;2.20;;
80117;SDS011;69424;48.770;-1.564;2023-12-20T01:16:05;10.30;;;1.50;;
80117;SDS011;69424;48.770;-1.564;2023-12-20T01:16:39;11.50;;;2.00;;
80117;SDS011;69424;48.770;-1.564;2023-12-20T01:17:12;12.70;;;3.20;;
80117;SDS011;69424;48.770;-1.564;2023-12-20T01:17:45;12.50;;;2.50;;
80117;SDS011;69424;48.770;-1.564;2023-12-20T01:18:18;11.10;;;1.50;;
80117;SDS011;69424;48.770;-1.564;2023-12-20T01:19:24;7.80;;;1.50;;
80117;SDS011;69424;48.770;-1.564;2023-12-20T01:19:58;8.20;;;1.20;;
80117;SDS011;69424;48.770;-1.564;2023-12-20T01:20:31;10.70;;;2.80;;
80117;SDS011;69424;48.770;-1.564;2023-12-20T01:21:37;9.30;;;1.20;;
80117;SDS011;69424;48.770;-1.564;2023-12-20T01:22:43;6.30;;;1.10;;
80117;SDS011;69424;48.770;-1.564;2023-12-20T01:23:18;10.70;;;2.00;;
80117;SDS011;69424;48.770;-1.564;2023-12-20T01:23:51;6.30;;;1.30;;
80117;SDS011;69424;48.770;-1.564;2023-12-20T01:24:24;6.70;;;1.20;;
80117;SDS011;69424;48.770;-1.564;2023-12-20T01:25:30;8.90;;;1.50;;
80117;SDS011;69424;48.770;-1.564;2023-12-20T01:26:38;8.70;;;1.00;;
80117;SDS011;69424;48.770;-1.564;2023-12-20T01:28:17;8.60;;;1.60;;
80117;SDS011;69424;48.770;-1.564;2023-12-20T01:28:50;7.70;;;0.90;;
80117;SDS011;69424;48.770;-1.564;2023-12-20T01:29:24;6.60;;;1.50;;
80117;SDS011;69424;48.770;-1.564;2023-12-20T01:29:57;12.50;;;1.90;;
80117;SDS011;69424;48.770;-1.564;2023-12-20T01:30:30;10.20;;;1.90;;
80117;SDS011;69424;48.770;-1.564;2023-12-20T01:31:03;10.00;;;2.20;;
80117;SDS011;69424;48.770;-1.564;2023-12-20T01:31:36;9.40;;;1.80;;
80117;SDS011;69424;48.770;-1.564;2023-12-20T01:32:10;10.30;;;2.70;;
80117;SDS011;69424;48.770;-1.564;2023-12-20T01:32:43;15.80;;;3.40;;
80117;SDS011;69424;48.770;-1.564;2023-12-20T01:33:16;12.40;;;2.30;;
80117;SDS011;69424;48.770;-1.564;2023-12-20T01:33:49;8.50;;;2.00;;
80117;SDS011;69424;48.770;-1.564;2023-12-20T01:34:22;11.40;;;2.20;;
80117;SDS011;69424;48.770;-1.564;2023-12-20T01:34:55;9.00;;;1.50;;
80117;SDS011;69424;48.770;-1.564;2023-12-20T01:35:33;10.60;;;1.70;;
80117;SDS011;69424;48.770;-1.564;2023-12-20T01:37:46;9.60;;;1.60;;
80117;SDS011;69424;48.770;-1.564;2023-12-20T01:38:19;10.80;;;1.40;;
80117;SDS011;69424;48.770;-1.564;2023-12-20T01:38:52;8.80;;;2.00;;
80117;SDS011;69424;48.770;-1.564;2023-12-20T01:39:26;16.40;;;2.50;;
80117;SDS011;69424;48.770;-1.564;2023-12-20T01:40:01;9.20;;;2.10;;
80117;SDS011;69424;48.770;-1.564;2023-12-20T01:40:35;13.80;;;3.10;;
80117;SDS011;69424;48.770;-1.564;2023-12-20T01:41:08;10.20;;;2.20;;
80117;SDS011;69424;48.770;-1.564;2023-12-20T01:42:46;8.30;;;1.70;;
80117;SDS011;69424;48.770;-1.564;2023-12-20T01:43:53;11.30;;;2.00;;
80117;SDS011;69424;48.770;-1.564;2023-12-20T01:44:26;11.10;;;3.20;;
80117;SDS011;69424;48.770;-1.564;2023-12-20T01:44:59;9.50;;;1.90;;
80117;SDS011;69424;48.770;-1.564;2023-12-20T01:45:33;13.00;;;2.60;;
80117;SDS011;69424;48.770;-1.564;2023-12-20T01:46:06;10.10;;;1.70;;
80117;SDS011;69424;48.770;-1.564;2023-12-20T01:46:39;9.00;;;1.80;;
80117;SDS011;69424;48.770;-1.564;2023-12-20T01:47:13;9.10;;;2.00;;
80117;SDS011;69424;48.770;-1.564;2023-12-20T01:47:46;9.10;;;1.60;;
80117;SDS011;69424;48.770;-1.564;2023-12-20T01:48:20;14.50;;;2.00;;
80117;SDS011;69424;48.770;-1.564;2023-12-20T01:48:53;10.60;;;1.70;;
80117;SDS011;69424;48.770;-1.564;2023-12-20T01:49:27;6.60;;;1.30;;
80117;SDS011;69424;48.770;-1.564;2023-12-20T01:50:00;10.60;;;1.50;;
80117;SDS011;69424;48.770;-1.564;2023-12-20T01:50:36;9.90;;;1.20;;
80117;SDS011;69424;48.770;-1.564;2023-12-20T01:51:10;12.00;;;2.10;;
80117;SDS011;69424;48.770;-1.564;2023-12-20T01:51:44;8.70;;;1.30;;
80117;SDS011;69424;48.770;-1.564;2023-12-20T01:52:18;7.20;;;1.50;;
80117;SDS011;69424;48.770;-1.564;2023-12-20T01:52:52;5.90;;;1.20;;
80117;SDS011;69424;48.770;-1.564;2023-12-20T01:53:30;9.70;;;1.50;;
80117;SDS011;69424;48.770;-1.564;2023-12-20T01:54:05;8.00;;;1.30;;
80117;SDS011;69424;48.770;-1.564;2023-12-20T01:54:38;7.10;;;1.60;;
80117;SDS011;69424;48.770;-1.564;2023-12-20T01:55:13;4.80;;;1.00;;
80117;SDS011;69424;48.770;-1.564;2023-12-20T01:55:48;8.70;;;1.00;;
80117;SDS011;69424;48.770;-1.564;2023-12-20T01:56:24;10.30;;;1.50;;
80117;SDS011;69424;48.770;-1.564;2023-12-20T01:56:59;8.20;;;1.50;;
80117;SDS011;69424;48.770;-1.564;2023-12-20T01:57:32;9.00;;;1.30;;
80117;SDS011;69424;48.770;-1.564;2023-12-20T01:58:06;6.20;;;1.70;;
80117;SDS011;69424;48.770;-1.564;2023-12-20T01:58:43;5.70;;;1.10;;
80117;SDS011;69424;48.770;-1.564;2023-12-20T01:59:18;5.40;;;1.50;;
80117;SDS011;69424;48.770;-1.564;2023-12-20T01:59:53;8.70;;;1.20;;
80117;SDS011;69424;48.770;-1.564;2023-12-20T02:01:39;7.40;;;1.20;;
80117;SDS011;69424;48.770;-1.564;2023-12-20T02:02:13;12.40;;;2.50;;
80117;SDS011;69424;48.770;-1.564;2023-12-20T02:02:49;13.00;;;2.10;;
80117;SDS011;69424;48.770;-1.564;2023-12-20T02:03:27;6.40;;;1.40;;
80117;SDS011;69424;48.770;-1.564;2023-12-20T02:04:01;11.90;;;1.30;;
80117;SDS011;69424;48.770;-1.564;2023-12-20T02:04:37;9.40;;;2.10;;
80117;SDS011;69424;48.770;-1.564;2023-12-20T02:05:10;7.20;;;1.00;;
80117;SDS011;69424;48.770;-1.564;2023-12-20T02:05:45;11.20;;;2.10;;
80117;SDS011;69424;48.770;-1.564;2023-12-20T02:06:19;9.60;;;1.20;;
80117;SDS011;69424;48.770;-1.564;2023-12-20T02:06:55;12.80;;;1.50;;
80117;SDS011;69424;48.770;-1.564;2023-12-20T02:07:29;10.90;;;1.50;;
80117;SDS011;69424;48.770;-1.564;2023-12-20T02:08:03;10.70;;;2.10;;
80117;SDS011;69424;48.770;-1.564;2023-12-20T02:08:38;12.40;;;2.00;;
80117;SDS011;69424;48.770;-1.564;2023-12-20T02:09:11;9.50;;;1.50;;
80117;SDS011;69424;48.770;-1.564;2023-12-20T02:09:44;11.70;;;1.90;;
80117;SDS011;69424;48.770;-1.564;2023-12-20T02:10:18;8.40;;;1.50;;
80117;SDS011;69424;48.770;-1.564;2023-12-20T02:10:51;9.90;;;1.70;;
80117;SDS011;69424;48.770;-1.564;2023-12-20T02:11:25;8.60;;;1.70;;
80117;SDS011;69424;48.770;-1.564;2023-12-20T02:11:59;10.20;;;2.00;;
80117;SDS011;69424;48.770;-1.564;2023-12-20T02:12:33;10.80;;;1.70;;
80117;SDS011;69424;48.770;-1.564;2023-12-20T02:13:07;11.80;;;1.50;;
80117;SDS011;69424;48.770;-1.564;2023-12-20T02:13:43;5.10;;;1.50;;
80117;SDS011;69424;48.770;-1.564;2023-12-20T02:14:17;10.90;;;1.40;;
80117;SDS011;69424;48.770;-1.564;2023-12-20T02:14:52;12.20;;;1.70;;
80117;SDS011;69424;48.770;-1.564;2023-12-20T02:15:27;10.10;;;1.50;;
80117;SDS011;69424;48.770;-1.564;2023-12-20T02:16:02;12.10;;;1.50;;
80117;SDS011;69424;48.770;-1.564;2023-12-20T02:16:38;11.50;;;2.20;;
80117;SDS011;69424;48.770;-1.564;2023-12-20T02:17:12;8.90;;;1.60;;
80117;SDS011;69424;48.770;-1.564;2023-12-20T02:17:50;10.30;;;1.40;;
80117;SDS011;69424;48.770;-1.564;2023-12-20T02:18:24;12.00;;;1.80;;
80117;SDS011;69424;48.770;-1.564;2023-12-20T02:18:57;6.30;;;1.20;;
80117;SDS011;69424;48.770;-1.564;2023-12-20T02:19:31;6.20;;;1.40;;
80117;SDS011;69424;48.770;-1.564;2023-12-20T02:20:05;8.80;;;1.40;;
80117;SDS011;69424;48.770;-1.564;2023-12-20T02:20:39;10.60;;;1.10;;
80117;SDS011;69424;48.770;-1.564;2023-12-20T02:21:25;7.50;;;1.10;;
80117;SDS011;69424;48.770;-1.564;2023-12-20T02:22:09;5.50;;;0.80;;
80117;SDS011;69424;48.770;-1.564;2023-12-20T02:22:45;4.60;;;0.80;;
80117;SDS011;69424;48.770;-1.564;2023-12-20T02:23:21;9.80;;;0.90;;
80117;SDS011;69424;48.770;-1.564;2023-12-20T02:23:54;8.70;;;1.30;;
80117;SDS011;69424;48.770;-1.564;2023-12-20T02:24:28;11.10;;;1.20;;
80117;SDS011;69424;48.770;-1.564;2023-12-20T02:25:01;6.90;;;1.10;;
80117;SDS011;69424;48.770;-1.564;2023-12-20T02:25:35;6.00;;;1.00;;
80117;SDS011;69424;48.770;-1.564;2023-12-20T02:26:12;4.00;;;0.80;;
80117;SDS011;69424;48.770;-1.564;2023-12-20T02:26:47;6.20;;;1.00;;
80117;SDS011;69424;48.770;-1.564;2023-12-20T02:27:23;5.20;;;1.20;;
80117;SDS011;69424;48.770;-1.564;2023-12-20T02:27:57;10.80;;;1.10;;
80117;SDS011;69424;48.770;-1.564;2023-12-20T02:28:30;3.80;;;0.80;;
80117;SDS011;69424;48.770;-1.564;2023-12-20T02:29:05;7.60;;;1.10;;
80117;SDS011;69424;48.770;-1.564;2023-12-20T02:29:43;7.70;;;0.90;;
80117;SDS011;69424;48.770;-1.564;2023-12-20T02:30:16;6.30;;;1.00;;
80117;SDS011;69424;48.770;-1.564;2023-12-20T02:30:52;5.30;;;1.00;;
80117;SDS011;69424;48.770;-1.564;2023-12-20T02:31:28;10.70;;;2.60;;
80117;SDS011;69424;48.770;-1.564;2023-12-20T02:32:35;6.20;;;1.30;;
80117;SDS011;69424;48.770;-1.564;2023-12-20T02:33:10;4.10;;;1.00;;
80117;SDS011;69424;48.770;-1.564;2023-12-20T02:33:45;7.60;;;0.80;;
80117;SDS011;69424;48.770;-1.564;2023-12-20T02:34:18;7.00;;;1.30;;
80117;SDS011;69424;48.770;-1.564;2023-12-20T02:34:51;6.30;;;2.10;;
80117;SDS011;69424;48.770;-1.564;2023-12-20T02:35:24;7.30;;;1.70;;
80117;SDS011;69424;48.770;-1.564;2023-12-20T02:36:30;9.20;;;1.70;;
80117;SDS011;69424;48.770;-1.564;2023-12-20T02:37:04;10.20;;;1.40;;
80117;SDS011;69424;48.770;-1.564;2023-12-20T02:37:37;4.90;;;1.00;;
80117;SDS011;69424;48.770;-1.564;2023-12-20T02:38:10;7.70;;;0.70;;
80117;SDS011;69424;48.770;-1.564;2023-12-20T02:38:43;6.70;;;1.20;;
80117;SDS011;69424;48.770;-1.564;2023-12-20T02:39:51;8.30;;;1.30;;
80117;SDS011;69424;48.770;-1.564;2023-12-20T02:40:24;5.60;;;0.70;;
80117;SDS011;69424;48.770;-1.564;2023-12-20T02:42:36;6.30;;;1.10;;
80117;SDS011;69424;48.770;-1.564;2023-12-20T02:43:09;5.80;;;1.00;;
80117;SDS011;69424;48.770;-1.564;2023-12-20T02:46:26;8.60;;;1.60;;
80117;SDS011;69424;48.770;-1.564;2023-12-20T02:48:05;8.60;;;1.50;;
80117;SDS011;69424;48.770;-1.564;2023-12-20T02:48:39;13.10;;;1.90;;
80117;SDS011;69424;48.770;-1.564;2023-12-20T02:49:12;6.60;;;1.20;;
80117;SDS011;69424;48.770;-1.564;2023-12-20T02:50:18;10.60;;;1.50;;
80117;SDS011;69424;48.770;-1.564;2023-12-20T02:50:51;9.10;;;2.20;;
80117;SDS011;69424;48.770;-1.564;2023-12-20T02:51:24;10.30;;;1.50;;
80117;SDS011;69424;48.770;-1.564;2023-12-20T02:51:57;9.70;;;1.60;;
80117;SDS011;69424;48.770;-1.564;2023-12-20T02:52:31;7.90;;;1.40;;
80117;SDS011;69424;48.770;-1.564;2023-12-20T02:53:04;6.20;;;1.30;;
80117;SDS011;69424;48.770;-1.564;2023-12-20T02:55:16;5.40;;;1.20;;
80117;SDS011;69424;48.770;-1.564;2023-12-20T02:55:49;10.10;;;1.40;;
80117;SDS011;69424;48.770;-1.564;2023-12-20T02:56:22;10.50;;;1.70;;
80117;SDS011;69424;48.770;-1.564;2023-12-20T02:56:54;8.10;;;1.60;;
80117;SDS011;69424;48.770;-1.564;2023-12-20T02:57:27;6.70;;;1.60;;
80117;SDS011;69424;48.770;-1.564;2023-12-20T02:58:01;8.30;;;1.70;;
80117;SDS011;69424;48.770;-1.564;2023-12-20T02:59:41;10.10;;;1.60;;
80117;SDS011;69424;48.770;-1.564;2023-12-20T03:00:47;9.10;;;1.10;;
80117;SDS011;69424;48.770;-1.564;2023-12-20T03:01:20;5.10;;;1.00;;
80117;SDS011;69424;48.770;-1.564;2023-12-20T03:02:26;5.60;;;1.20;;
80117;SDS011;69424;48.770;-1.564;2023-12-20T03:03:32;7.10;;;1.10;;
80117;SDS011;69424;48.770;-1.564;2023-12-20T03:04:05;8.20;;;1.40;;
80117;SDS011;69424;48.770;-1.564;2023-12-20T03:04:39;9.30;;;1.40;;
80117;SDS011;69424;48.770;-1.564;2023-12-20T03:05:12;8.40;;;1.00;;
80117;SDS011;69424;48.770;-1.564;2023-12-20T03:06:19;10.30;;;1.50;;
80117;SDS011;69424;48.770;-1.564;2023-12-20T03:06:52;14.40;;;1.90;;
80117;SDS011;69424;48.770;-1.564;2023-12-20T03:07:58;5.90;;;1.40;;
80117;SDS011;69424;48.770;-1.564;2023-12-20T03:08:31;9.10;;;1.30;;
80117;SDS011;69424;48.770;-1.564;2023-12-20T03:09:37;8.60;;;1.10;;
80117;SDS011;69424;48.770;-1.564;2023-12-20T03:10:30;5.40;;;1.00;;
80117;SDS011;69424;48.770;-1.564;2023-12-20T03:11:36;4.00;;;1.00;;
80117;SDS011;69424;48.770;-1.564;2023-12-20T03:12:09;8.00;;;1.20;;
80117;SDS011;69424;48.770;-1.564;2023-12-20T03:13:15;5.20;;;0.80;;
80117;SDS011;69424;48.770;-1.564;2023-12-20T03:13:48;7.20;;;1.10;;
80117;SDS011;69424;48.770;-1.564;2023-12-20T03:14:22;7.20;;;1.40;;
80117;SDS011;69424;48.770;-1.564;2023-12-20T03:14:55;6.50;;;1.10;;
80117;SDS011;69424;48.770;-1.564;2023-12-20T03:16:00;6.00;;;0.90;;
80117;SDS011;69424;48.770;-1.564;2023-12-20T03:16:34;6.00;;;1.10;;
80117;SDS011;69424;48.770;-1.564;2023-12-20T03:17:08;11.40;;;1.90;;
80117;SDS011;69424;48.770;-1.564;2023-12-20T03:17:41;6.10;;;1.30;;
80117;SDS011;69424;48.770;-1.564;2023-12-20T03:18:15;8.50;;;1.80;;
80117;SDS011;69424;48.770;-1.564;2023-12-20T03:19:21;8.20;;;1.20;;
80117;SDS011;69424;48.770;-1.564;2023-12-20T03:19:54;7.90;;;1.30;;
80117;SDS011;69424;48.770;-1.564;2023-12-20T03:21:00;11.40;;;1.30;;
80117;SDS011;69424;48.770;-1.564;2023-12-20T03:22:39;8.90;;;1.40;;
80117;SDS011;69424;48.770;-1.564;2023-12-20T03:24:18;7.40;;;0.80;;
80117;SDS011;69424;48.770;-1.564;2023-12-20T03:25:24;4.40;;;0.70;;
80117;SDS011;69424;48.770;-1.564;2023-12-20T03:26:31;5.40;;;0.90;;
80117;SDS011;69424;48.770;-1.564;2023-12-20T03:27:04;8.70;;;1.60;;
80117;SDS011;69424;48.770;-1.564;2023-12-20T03:28:13;6.60;;;1.50;;
80117;SDS011;69424;48.770;-1.564;2023-12-20T03:28:48;5.20;;;1.00;;
80117;SDS011;69424;48.770;-1.564;2023-12-20T03:29:21;6.40;;;1.40;;
80117;SDS011;69424;48.770;-1.564;2023-12-20T03:29:54;9.20;;;1.40;;
80117;SDS011;69424;48.770;-1.564;2023-12-20T03:30:27;7.80;;;1.30;;
80117;SDS011;69424;48.770;-1.564;2023-12-20T03:31:00;5.50;;;1.10;;
80117;SDS011;69424;48.770;-1.564;2023-12-20T03:31:35;6.20;;;1.00;;
80117;SDS011;69424;48.770;-1.564;2023-12-20T03:32:41;6.40;;;1.00;;
80117;SDS011;69424;48.770;-1.564;2023-12-20T03:33:14;10.10;;;1.80;;
80117;SDS011;69424;48.770;-1.564;2023-12-20T03:33:47;12.20;;;2.20;;
80117;SDS011;69424;48.770;-1.564;2023-12-20T03:34:20;13.90;;;1.50;;
80117;SDS011;69424;48.770;-1.564;2023-12-20T03:34:54;9.20;;;1.40;;
80117;SDS011;69424;48.770;-1.564;2023-12-20T03:35:27;11.70;;;1.90;;
80117;SDS011;69424;48.770;-1.564;2023-12-20T03:37:06;8.60;;;1.60;;
80117;SDS011;69424;48.770;-1.564;2023-12-20T03:37:39;14.00;;;1.80;;
80117;SDS011;69424;48.770;-1.564;2023-12-20T03:38:12;9.60;;;1.60;;
80117;SDS011;69424;48.770;-1.564;2023-12-20T03:38:45;16.50;;;1.80;;
80117;SDS011;69424;48.770;-1.564;2023-12-20T03:39:18;9.10;;;1.80;;
80117;SDS011;69424;48.770;-1.564;2023-12-20T03:39:51;10.60;;;1.60;;
80117;SDS011;69424;48.770;-1.564;2023-12-20T03:40:25;8.00;;;1.30;;
80117;SDS011;69424;48.770;-1.564;2023-12-20T03:40:58;7.60;;;1.60;;
80117;SDS011;69424;48.770;-1.564;2023-12-20T03:41:31;9.80;;;2.20;;
80117;SDS011;69424;48.770;-1.564;2023-12-20T03:42:37;8.60;;;1.20;;
80117;SDS011;69424;48.770;-1.564;2023-12-20T03:43:43;11.00;;;1.90;;
80117;SDS011;69424;48.770;-1.564;2023-12-20T03:45:55;10.70;;;1.40;;
80117;SDS011;69424;48.770;-1.564;2023-12-20T03:46:28;13.10;;;1.70;;
80117;SDS011;69424;48.770;-1.564;2023-12-20T03:47:01;9.70;;;1.60;;
80117;SDS011;69424;48.770;-1.564;2023-12-20T03:48:07;9.50;;;1.40;;
80117;SDS011;69424;48.770;-1.564;2023-12-20T03:49:13;10.20;;;1.50;;
80117;SDS011;69424;48.770;-1.564;2023-12-20T03:49:46;8.50;;;1.70;;
80117;SDS011;69424;48.770;-1.564;2023-12-20T03:50:19;16.90;;;2.00;;
80117;SDS011;69424;48.770;-1.564;2023-12-20T03:51:25;8.00;;;1.50;;
80117;SDS011;69424;48.770;-1.564;2023-12-20T03:51:58;12.40;;;1.60;;
80117;SDS011;69424;48.770;-1.564;2023-12-20T03:52:32;10.60;;;1.50;;
80117;SDS011;69424;48.770;-1.564;2023-12-20T03:53:05;9.60;;;1.50;;
80117;SDS011;69424;48.770;-1.564;2023-12-20T03:53:38;14.00;;;2.00;;
80117;SDS011;69424;48.770;-1.564;2023-12-20T03:54:13;13.40;;;1.60;;
80117;SDS011;69424;48.770;-1.564;2023-12-20T03:54:46;9.90;;;2.00;;
80117;SDS011;69424;48.770;-1.564;2023-12-20T03:55:19;10.90;;;1.90;;
80117;SDS011;69424;48.770;-1.564;2023-12-20T03:56:25;7.70;;;1.50;;
80117;SDS011;69424;48.770;-1.564;2023-12-20T03:56:58;12.10;;;1.70;;
80117;SDS011;69424;48.770;-1.564;2023-12-20T03:58:37;12.00;;;2.10;;
80117;SDS011;69424;48.770;-1.564;2023-12-20T03:59:10;11.40;;;1.70;;
80117;SDS011;69424;48.770;-1.564;2023-12-20T04:00:49;9.30;;;2.20;;
80117;SDS011;69424;48.770;-1.564;2023-12-20T04:01:22;9.30;;;1.60;;
80117;SDS011;69424;48.770;-1.564;2023-12-20T04:02:29;14.00;;;1.70;;
80117;SDS011;69424;48.770;-1.564;2023-12-20T04:03:35;10.50;;;1.80;;
80117;SDS011;69424;48.770;-1.564;2023-12-20T04:04:07;11.60;;;1.30;;
80117;SDS011;69424;48.770;-1.564;2023-12-20T04:05:14;10.00;;;2.00;;
80117;SDS011;69424;48.770;-1.564;2023-12-20T04:06:21;10.80;;;1.50;;
80117;SDS011;69424;48.770;-1.564;2023-12-20T04:08:01;13.50;;;1.50;;
80117;SDS011;69424;48.770;-1.564;2023-12-20T04:08:34;11.60;;;1.60;;
80117;SDS011;69424;48.770;-1.564;2023-12-20T04:09:07;13.30;;;1.90;;
80117;SDS011;69424;48.770;-1.564;2023-12-20T04:09:42;11.80;;;2.30;;
80117;SDS011;69424;48.770;-1.564;2023-12-20T04:10:48;11.70;;;2.10;;
80117;SDS011;69424;48.770;-1.564;2023-12-20T04:11:21;12.30;;;1.60;;
80117;SDS011;69424;48.770;-1.564;2023-12-20T04:11:54;17.10;;;1.70;;
80117;SDS011;69424;48.770;-1.564;2023-12-20T04:12:28;11.20;;;1.80;;
80117;SDS011;69424;48.770;-1.564;2023-12-20T04:13:01;14.50;;;2.20;;
80117;SDS011;69424;48.770;-1.564;2023-12-20T04:13:34;15.10;;;2.30;;
80117;SDS011;69424;48.770;-1.564;2023-12-20T04:14:07;9.20;;;1.60;;
80117;SDS011;69424;48.770;-1.564;2023-12-20T04:14:40;16.90;;;2.50;;
80117;SDS011;69424;48.770;-1.564;2023-12-20T04:16:19;10.00;;;1.70;;
80117;SDS011;69424;48.770;-1.564;2023-12-20T04:17:25;9.60;;;1.50;;
80117;SDS011;69424;48.770;-1.564;2023-12-20T04:17:58;14.40;;;2.10;;
80117;SDS011;69424;48.770;-1.564;2023-12-20T04:18:32;10.30;;;2.10;;
80117;SDS011;69424;48.770;-1.564;2023-12-20T04:19:05;8.00;;;1.60;;
80117;SDS011;69424;48.770;-1.564;2023-12-20T04:19:38;14.00;;;1.90;;
80117;SDS011;69424;48.770;-1.564;2023-12-20T04:20:12;9.10;;;1.90;;
80117;SDS011;69424;48.770;-1.564;2023-12-20T04:20:45;14.20;;;1.80;;